sensor_id;sensor_type;location;lat;lon;timestamp;P1;durP1;ratioP1;P2;durP2;ratioP2
59074;SDS011;44860;53.020;6.738;2023-11-21T00:01:01;37.47;;;14.48;;
59074;SDS011;44860;53.020;6.738;2023-11-21T00:03:29;35.83;;;13.60;;
59074;SDS011;44860;53.020;6.738;2023-11-21T00:05:57;34.70;;;14.45;;
59074;SDS011;44860;53.020;6.738;2023-11-21T00:08:27;34.30;;;13.88;;
59074;SDS011;44860;53.020;6.738;2023-11-21T00:10:53;33.55;;;13.70;;
59074;SDS011;44860;53.020;6.738;2023-11-21T00:13:20;35.00;;;13.93;;
59074;SDS011;44860;53.020;6.738;2023-11-21T00:15:45;30.95;;;13.70;;
59074;SDS011;44860;53.020;6.738;2023-11-21T00:18:11;34.65;;;14.30;;
59074;SDS011;44860;53.020;6.738;2023-11-21T00:20:36;36.25;;;14.23;;
59074;SDS011;44860;53.020;6.738;2023-11-21T00:23:02;32.67;;;14.07;;
59074;SDS011;44860;53.020;6.738;2023-11-21T00:25:28;30.90;;;13.63;;
59074;SDS011;44860;53.020;6.738;2023-11-21T00:27:53;33.22;;;14.30;;
59074;SDS011;44860;53.020;6.738;2023-11-21T00:30:19;34.58;;;15.13;;
59074;SDS011;44860;53.020;6.738;2023-11-21T00:32:46;39.88;;;15.88;;
59074;SDS011;44860;53.020;6.738;2023-11-21T00:35:11;35.67;;;14.32;;
59074;SDS011;44860;53.020;6.738;2023-11-21T00:37:37;36.25;;;14.68;;
59074;SDS011;44860;53.020;6.738;2023-11-21T00:40:04;37.25;;;15.50;;
59074;SDS011;44860;53.020;6.738;2023-11-21T00:42:31;33.88;;;15.07;;
59074;SDS011;44860;53.020;6.738;2023-11-21T00:44:59;34.03;;;14.68;;
59074;SDS011;44860;53.020;6.738;2023-11-21T00:47:25;33.05;;;14.77;;
59074;SDS011;44860;53.020;6.738;2023-11-21T00:49:50;37.20;;;15.70;;
59074;SDS011;44860;53.020;6.738;2023-11-21T00:52:16;37.67;;;15.27;;
59074;SDS011;44860;53.020;6.738;2023-11-21T00:54:42;34.40;;;15.25;;
59074;SDS011;44860;53.020;6.738;2023-11-21T00:57:08;35.30;;;16.05;;
59074;SDS011;44860;53.020;6.738;2023-11-21T00:59:33;42.70;;;15.20;;
59074;SDS011;44860;53.020;6.738;2023-11-21T01:02:00;38.90;;;15.77;;
59074;SDS011;44860;53.020;6.738;2023-11-21T01:04:26;38.80;;;15.63;;
59074;SDS011;44860;53.020;6.738;2023-11-21T01:06:52;32.60;;;15.20;;
59074;SDS011;44860;53.020;6.738;2023-11-21T01:09:18;34.17;;;15.18;;
59074;SDS011;44860;53.020;6.738;2023-11-21T01:11:44;32.70;;;15.70;;
59074;SDS011;44860;53.020;6.738;2023-11-21T01:14:10;35.17;;;15.60;;
59074;SDS011;44860;53.020;6.738;2023-11-21T01:16:35;43.00;;;16.17;;
59074;SDS011;44860;53.020;6.738;2023-11-21T01:19:01;44.22;;;15.95;;
59074;SDS011;44860;53.020;6.738;2023-11-21T01:21:27;37.15;;;15.52;;
59074;SDS011;44860;53.020;6.738;2023-11-21T01:23:53;46.10;;;17.60;;
59074;SDS011;44860;53.020;6.738;2023-11-21T01:26:20;38.05;;;16.17;;
59074;SDS011;44860;53.020;6.738;2023-11-21T01:28:46;37.17;;;17.50;;
59074;SDS011;44860;53.020;6.738;2023-11-21T01:31:14;34.45;;;15.30;;
59074;SDS011;44860;53.020;6.738;2023-11-21T01:33:40;36.97;;;16.00;;
59074;SDS011;44860;53.020;6.738;2023-11-21T01:36:06;38.08;;;16.65;;
59074;SDS011;44860;53.020;6.738;2023-11-21T01:38:32;41.53;;;17.00;;
59074;SDS011;44860;53.020;6.738;2023-11-21T01:40:57;42.20;;;17.10;;
59074;SDS011;44860;53.020;6.738;2023-11-21T01:43:25;39.47;;;16.92;;
59074;SDS011;44860;53.020;6.738;2023-11-21T01:45:53;42.10;;;17.27;;
59074;SDS011;44860;53.020;6.738;2023-11-21T01:48:22;40.45;;;17.02;;
59074;SDS011;44860;53.020;6.738;2023-11-21T01:50:48;43.65;;;17.30;;
59074;SDS011;44860;53.020;6.738;2023-11-21T01:53:14;43.78;;;18.50;;
59074;SDS011;44860;53.020;6.738;2023-11-21T01:55:41;40.40;;;17.10;;
59074;SDS011;44860;53.020;6.738;2023-11-21T01:58:08;42.50;;;16.77;;
59074;SDS011;44860;53.020;6.738;2023-11-21T02:00:35;43.25;;;17.70;;
59074;SDS011;44860;53.020;6.738;2023-11-21T02:03:00;46.30;;;17.27;;
59074;SDS011;44860;53.020;6.738;2023-11-21T02:05:26;43.83;;;17.42;;
59074;SDS011;44860;53.020;6.738;2023-11-21T02:07:52;41.33;;;17.27;;
59074;SDS011;44860;53.020;6.738;2023-11-21T02:10:18;40.60;;;17.48;;
59074;SDS011;44860;53.020;6.738;2023-11-21T02:12:48;46.10;;;17.95;;
59074;SDS011;44860;53.020;6.738;2023-11-21T02:15:17;43.28;;;17.77;;
59074;SDS011;44860;53.020;6.738;2023-11-21T02:17:46;41.13;;;16.67;;
59074;SDS011;44860;53.020;6.738;2023-11-21T02:20:16;41.38;;;17.73;;
59074;SDS011;44860;53.020;6.738;2023-11-21T02:23:04;46.85;;;17.95;;
59074;SDS011;44860;53.020;6.738;2023-11-21T02:25:30;39.45;;;17.70;;
59074;SDS011;44860;53.020;6.738;2023-11-21T02:27:58;46.25;;;17.48;;
59074;SDS011;44860;53.020;6.738;2023-11-21T02:30:25;47.80;;;17.13;;
59074;SDS011;44860;53.020;6.738;2023-11-21T02:32:53;43.65;;;17.75;;
59074;SDS011;44860;53.020;6.738;2023-11-21T02:35:19;44.58;;;17.67;;
59074;SDS011;44860;53.020;6.738;2023-11-21T02:37:49;47.45;;;18.25;;
59074;SDS011;44860;53.020;6.738;2023-11-21T02:40:15;46.92;;;18.23;;
59074;SDS011;44860;53.020;6.738;2023-11-21T02:42:45;51.33;;;18.73;;
59074;SDS011;44860;53.020;6.738;2023-11-21T02:45:12;57.65;;;19.80;;
59074;SDS011;44860;53.020;6.738;2023-11-21T02:47:41;52.88;;;20.10;;
59074;SDS011;44860;53.020;6.738;2023-11-21T02:50:10;41.38;;;18.63;;
59074;SDS011;44860;53.020;6.738;2023-11-21T02:52:36;57.53;;;20.52;;
59074;SDS011;44860;53.020;6.738;2023-11-21T02:55:02;56.35;;;20.63;;
59074;SDS011;44860;53.020;6.738;2023-11-21T02:57:28;48.63;;;19.58;;
59074;SDS011;44860;53.020;6.738;2023-11-21T02:59:54;53.17;;;19.55;;
59074;SDS011;44860;53.020;6.738;2023-11-21T03:02:20;50.17;;;18.83;;
59074;SDS011;44860;53.020;6.738;2023-11-21T03:04:47;60.20;;;19.83;;
59074;SDS011;44860;53.020;6.738;2023-11-21T03:07:14;46.15;;;18.45;;
59074;SDS011;44860;53.020;6.738;2023-11-21T03:09:40;48.08;;;18.48;;
59074;SDS011;44860;53.020;6.738;2023-11-21T03:12:05;51.08;;;19.67;;
59074;SDS011;44860;53.020;6.738;2023-11-21T03:14:31;45.38;;;18.98;;
59074;SDS011;44860;53.020;6.738;2023-11-21T03:16:57;51.58;;;20.02;;
59074;SDS011;44860;53.020;6.738;2023-11-21T03:19:25;45.45;;;18.08;;
59074;SDS011;44860;53.020;6.738;2023-11-21T03:21:51;47.97;;;19.13;;
59074;SDS011;44860;53.020;6.738;2023-11-21T03:24:18;48.53;;;19.15;;
59074;SDS011;44860;53.020;6.738;2023-11-21T03:26:45;49.63;;;18.77;;
59074;SDS011;44860;53.020;6.738;2023-11-21T03:29:11;53.45;;;19.20;;
59074;SDS011;44860;53.020;6.738;2023-11-21T03:31:37;50.20;;;17.80;;
59074;SDS011;44860;53.020;6.738;2023-11-21T03:34:04;40.92;;;17.17;;
59074;SDS011;44860;53.020;6.738;2023-11-21T03:36:30;43.38;;;18.27;;
59074;SDS011;44860;53.020;6.738;2023-11-21T03:38:55;69.75;;;19.90;;
59074;SDS011;44860;53.020;6.738;2023-11-21T03:41:21;58.97;;;20.08;;
59074;SDS011;44860;53.020;6.738;2023-11-21T03:43:46;50.15;;;19.23;;
59074;SDS011;44860;53.020;6.738;2023-11-21T03:46:12;44.60;;;18.48;;
59074;SDS011;44860;53.020;6.738;2023-11-21T03:48:38;47.05;;;17.83;;
59074;SDS011;44860;53.020;6.738;2023-11-21T03:51:04;42.50;;;18.10;;
59074;SDS011;44860;53.020;6.738;2023-11-21T03:53:30;52.13;;;19.48;;
59074;SDS011;44860;53.020;6.738;2023-11-21T03:55:55;46.50;;;18.35;;
59074;SDS011;44860;53.020;6.738;2023-11-21T03:58:21;42.13;;;18.48;;
59074;SDS011;44860;53.020;6.738;2023-11-21T04:00:47;47.65;;;20.00;;
59074;SDS011;44860;53.020;6.738;2023-11-21T04:03:14;53.83;;;18.30;;
59074;SDS011;44860;53.020;6.738;2023-11-21T04:05:40;41.63;;;18.17;;
59074;SDS011;44860;53.020;6.738;2023-11-21T04:08:06;61.67;;;20.25;;
59074;SDS011;44860;53.020;6.738;2023-11-21T04:10:32;58.55;;;20.88;;
59074;SDS011;44860;53.020;6.738;2023-11-21T04:13:01;58.72;;;18.98;;
59074;SDS011;44860;53.020;6.738;2023-11-21T04:15:27;64.78;;;20.42;;
59074;SDS011;44860;53.020;6.738;2023-11-21T04:17:52;57.85;;;19.73;;
59074;SDS011;44860;53.020;6.738;2023-11-21T04:20:18;55.40;;;20.27;;
59074;SDS011;44860;53.020;6.738;2023-11-21T04:22:44;73.32;;;21.77;;
59074;SDS011;44860;53.020;6.738;2023-11-21T04:25:10;55.40;;;20.52;;
59074;SDS011;44860;53.020;6.738;2023-11-21T04:27:41;46.95;;;19.27;;
59074;SDS011;44860;53.020;6.738;2023-11-21T04:30:10;52.57;;;19.93;;
59074;SDS011;44860;53.020;6.738;2023-11-21T04:32:37;59.92;;;20.13;;
59074;SDS011;44860;53.020;6.738;2023-11-21T04:35:04;51.97;;;20.70;;
59074;SDS011;44860;53.020;6.738;2023-11-21T04:37:30;56.38;;;20.75;;
59074;SDS011;44860;53.020;6.738;2023-11-21T04:39:55;52.95;;;20.40;;
59074;SDS011;44860;53.020;6.738;2023-11-21T04:42:21;60.55;;;21.35;;
59074;SDS011;44860;53.020;6.738;2023-11-21T04:44:47;53.17;;;21.80;;
59074;SDS011;44860;53.020;6.738;2023-11-21T04:47:13;64.75;;;22.33;;
59074;SDS011;44860;53.020;6.738;2023-11-21T04:49:41;45.80;;;20.55;;
59074;SDS011;44860;53.020;6.738;2023-11-21T04:52:08;59.13;;;22.20;;
59074;SDS011;44860;53.020;6.738;2023-11-21T04:54:35;69.65;;;22.90;;
59074;SDS011;44860;53.020;6.738;2023-11-21T04:57:01;56.00;;;22.30;;
59074;SDS011;44860;53.020;6.738;2023-11-21T04:59:26;63.38;;;22.02;;
59074;SDS011;44860;53.020;6.738;2023-11-21T05:01:53;49.05;;;21.40;;
59074;SDS011;44860;53.020;6.738;2023-11-21T05:04:19;52.28;;;22.02;;
59074;SDS011;44860;53.020;6.738;2023-11-21T05:06:47;59.72;;;22.30;;
59074;SDS011;44860;53.020;6.738;2023-11-21T05:09:13;49.10;;;21.92;;
59074;SDS011;44860;53.020;6.738;2023-11-21T05:11:38;61.28;;;23.67;;
59074;SDS011;44860;53.020;6.738;2023-11-21T05:14:05;53.08;;;21.75;;
59074;SDS011;44860;53.020;6.738;2023-11-21T05:16:31;64.97;;;22.90;;
59074;SDS011;44860;53.020;6.738;2023-11-21T05:18:57;56.35;;;21.50;;
59074;SDS011;44860;53.020;6.738;2023-11-21T05:21:28;56.50;;;22.52;;
59074;SDS011;44860;53.020;6.738;2023-11-21T05:23:56;56.47;;;22.65;;
59074;SDS011;44860;53.020;6.738;2023-11-21T05:26:22;55.08;;;23.83;;
59074;SDS011;44860;53.020;6.738;2023-11-21T05:28:47;53.92;;;23.52;;
59074;SDS011;44860;53.020;6.738;2023-11-21T05:31:13;52.17;;;22.85;;
59074;SDS011;44860;53.020;6.738;2023-11-21T05:33:39;53.58;;;23.40;;
59074;SDS011;44860;53.020;6.738;2023-11-21T05:36:05;51.40;;;23.73;;
59074;SDS011;44860;53.020;6.738;2023-11-21T05:38:33;45.83;;;22.27;;
59074;SDS011;44860;53.020;6.738;2023-11-21T05:40:59;47.42;;;23.02;;
59074;SDS011;44860;53.020;6.738;2023-11-21T05:43:24;63.72;;;24.38;;
59074;SDS011;44860;53.020;6.738;2023-11-21T05:45:50;69.57;;;24.27;;
59074;SDS011;44860;53.020;6.738;2023-11-21T05:48:16;54.55;;;23.85;;
59074;SDS011;44860;53.020;6.738;2023-11-21T05:50:41;53.63;;;23.70;;
59074;SDS011;44860;53.020;6.738;2023-11-21T05:53:07;52.13;;;24.02;;
59074;SDS011;44860;53.020;6.738;2023-11-21T05:55:35;59.60;;;29.40;;
59074;SDS011;44860;53.020;6.738;2023-11-21T05:58:00;56.75;;;26.08;;
59074;SDS011;44860;53.020;6.738;2023-11-21T06:00:26;53.42;;;23.95;;
59074;SDS011;44860;53.020;6.738;2023-11-21T06:02:53;48.17;;;22.55;;
59074;SDS011;44860;53.020;6.738;2023-11-21T06:05:19;53.90;;;22.40;;
59074;SDS011;44860;53.020;6.738;2023-11-21T06:07:49;44.95;;;20.80;;
59074;SDS011;44860;53.020;6.738;2023-11-21T06:10:15;44.78;;;20.55;;
59074;SDS011;44860;53.020;6.738;2023-11-21T06:12:43;47.78;;;20.73;;
59074;SDS011;44860;53.020;6.738;2023-11-21T06:15:09;47.15;;;20.23;;
59074;SDS011;44860;53.020;6.738;2023-11-21T06:17:38;39.22;;;16.75;;
59074;SDS011;44860;53.020;6.738;2023-11-21T06:20:13;33.95;;;14.95;;
59074;SDS011;44860;53.020;6.738;2023-11-21T06:22:42;25.40;;;13.60;;
59074;SDS011;44860;53.020;6.738;2023-11-21T06:25:08;27.85;;;13.48;;
59074;SDS011;44860;53.020;6.738;2023-11-21T06:27:39;27.85;;;13.27;;
59074;SDS011;44860;53.020;6.738;2023-11-21T06:30:09;22.25;;;11.65;;
59074;SDS011;44860;53.020;6.738;2023-11-21T06:32:37;21.30;;;11.35;;
59074;SDS011;44860;53.020;6.738;2023-11-21T06:35:03;26.13;;;12.20;;
59074;SDS011;44860;53.020;6.738;2023-11-21T06:37:30;26.45;;;12.43;;
59074;SDS011;44860;53.020;6.738;2023-11-21T06:39:57;26.77;;;13.40;;
59074;SDS011;44860;53.020;6.738;2023-11-21T06:42:28;28.17;;;14.55;;
59074;SDS011;44860;53.020;6.738;2023-11-21T06:44:54;31.48;;;15.68;;
59074;SDS011;44860;53.020;6.738;2023-11-21T06:47:24;27.17;;;15.85;;
59074;SDS011;44860;53.020;6.738;2023-11-21T06:49:50;34.55;;;15.93;;
59074;SDS011;44860;53.020;6.738;2023-11-21T06:52:17;31.90;;;16.27;;
59074;SDS011;44860;53.020;6.738;2023-11-21T06:54:43;33.28;;;16.55;;
59074;SDS011;44860;53.020;6.738;2023-11-21T06:57:10;32.78;;;16.98;;
59074;SDS011;44860;53.020;6.738;2023-11-21T06:59:36;30.80;;;16.23;;
59074;SDS011;44860;53.020;6.738;2023-11-21T07:02:01;30.20;;;16.10;;
59074;SDS011;44860;53.020;6.738;2023-11-21T07:04:27;29.35;;;16.13;;
59074;SDS011;44860;53.020;6.738;2023-11-21T07:06:53;31.63;;;16.77;;
59074;SDS011;44860;53.020;6.738;2023-11-21T07:09:19;28.27;;;15.63;;
59074;SDS011;44860;53.020;6.738;2023-11-21T07:11:48;30.55;;;15.63;;
59074;SDS011;44860;53.020;6.738;2023-11-21T07:14:14;28.23;;;14.82;;
59074;SDS011;44860;53.020;6.738;2023-11-21T07:16:42;26.77;;;14.05;;
59074;SDS011;44860;53.020;6.738;2023-11-21T07:19:08;29.58;;;15.73;;
59074;SDS011;44860;53.020;6.738;2023-11-21T07:21:34;36.50;;;16.60;;
59074;SDS011;44860;53.020;6.738;2023-11-21T07:24:00;37.55;;;16.80;;
59074;SDS011;44860;53.020;6.738;2023-11-21T07:26:27;38.78;;;17.85;;
59074;SDS011;44860;53.020;6.738;2023-11-21T07:28:53;36.35;;;17.35;;
59074;SDS011;44860;53.020;6.738;2023-11-21T07:31:19;51.55;;;18.90;;
59074;SDS011;44860;53.020;6.738;2023-11-21T07:33:45;39.88;;;19.10;;
59074;SDS011;44860;53.020;6.738;2023-11-21T07:36:14;38.35;;;18.05;;
59074;SDS011;44860;53.020;6.738;2023-11-21T07:38:43;42.78;;;17.80;;
59074;SDS011;44860;53.020;6.738;2023-11-21T07:41:10;41.65;;;18.67;;
59074;SDS011;44860;53.020;6.738;2023-11-21T07:43:35;47.38;;;19.45;;
59074;SDS011;44860;53.020;6.738;2023-11-21T07:46:02;37.05;;;18.45;;
59074;SDS011;44860;53.020;6.738;2023-11-21T07:48:31;36.90;;;18.33;;
59074;SDS011;44860;53.020;6.738;2023-11-21T07:50:58;41.38;;;19.77;;
59074;SDS011;44860;53.020;6.738;2023-11-21T07:53:24;40.10;;;19.67;;
59074;SDS011;44860;53.020;6.738;2023-11-21T07:55:50;42.08;;;19.88;;
59074;SDS011;44860;53.020;6.738;2023-11-21T07:58:17;37.45;;;19.98;;
59074;SDS011;44860;53.020;6.738;2023-11-21T08:00:43;46.95;;;21.52;;
59074;SDS011;44860;53.020;6.738;2023-11-21T08:03:09;41.70;;;21.45;;
59074;SDS011;44860;53.020;6.738;2023-11-21T08:05:36;46.65;;;22.50;;
59074;SDS011;44860;53.020;6.738;2023-11-21T08:08:02;45.88;;;22.15;;
59074;SDS011;44860;53.020;6.738;2023-11-21T08:10:27;44.50;;;21.83;;
59074;SDS011;44860;53.020;6.738;2023-11-21T08:12:54;49.35;;;23.08;;
59074;SDS011;44860;53.020;6.738;2023-11-21T08:15:20;47.28;;;23.52;;
59074;SDS011;44860;53.020;6.738;2023-11-21T08:17:46;53.80;;;25.15;;
59074;SDS011;44860;53.020;6.738;2023-11-21T08:20:12;51.58;;;24.55;;
59074;SDS011;44860;53.020;6.738;2023-11-21T08:22:41;49.03;;;24.73;;
59074;SDS011;44860;53.020;6.738;2023-11-21T08:25:07;47.92;;;25.63;;
59074;SDS011;44860;53.020;6.738;2023-11-21T08:27:33;48.17;;;25.75;;
59074;SDS011;44860;53.020;6.738;2023-11-21T08:30:00;46.30;;;24.98;;
59074;SDS011;44860;53.020;6.738;2023-11-21T08:32:26;42.78;;;25.17;;
59074;SDS011;44860;53.020;6.738;2023-11-21T08:34:51;43.53;;;25.45;;
59074;SDS011;44860;53.020;6.738;2023-11-21T08:37:17;42.08;;;25.90;;
59074;SDS011;44860;53.020;6.738;2023-11-21T08:39:43;47.42;;;27.00;;
59074;SDS011;44860;53.020;6.738;2023-11-21T08:42:09;40.95;;;24.85;;
59074;SDS011;44860;53.020;6.738;2023-11-21T08:44:35;39.60;;;24.55;;
59074;SDS011;44860;53.020;6.738;2023-11-21T08:47:01;40.80;;;25.40;;
59074;SDS011;44860;53.020;6.738;2023-11-21T08:49:27;40.58;;;24.67;;
59074;SDS011;44860;53.020;6.738;2023-11-21T08:51:54;36.08;;;23.52;;
59074;SDS011;44860;53.020;6.738;2023-11-21T08:54:24;33.42;;;23.30;;
59074;SDS011;44860;53.020;6.738;2023-11-21T08:56:54;31.85;;;21.95;;
59074;SDS011;44860;53.020;6.738;2023-11-21T08:59:20;32.20;;;22.73;;
59074;SDS011;44860;53.020;6.738;2023-11-21T09:01:46;32.92;;;23.60;;
59074;SDS011;44860;53.020;6.738;2023-11-21T09:04:12;34.67;;;25.00;;
59074;SDS011;44860;53.020;6.738;2023-11-21T09:06:39;32.15;;;23.80;;
59074;SDS011;44860;53.020;6.738;2023-11-21T09:09:05;32.60;;;24.38;;
59074;SDS011;44860;53.020;6.738;2023-11-21T09:11:31;30.63;;;23.05;;
59074;SDS011;44860;53.020;6.738;2023-11-21T09:14:02;29.98;;;23.20;;
59074;SDS011;44860;53.020;6.738;2023-11-21T09:16:31;30.30;;;23.00;;
59074;SDS011;44860;53.020;6.738;2023-11-21T09:18:57;32.15;;;23.35;;
59074;SDS011;44860;53.020;6.738;2023-11-21T09:21:26;31.38;;;23.00;;
59074;SDS011;44860;53.020;6.738;2023-11-21T09:23:52;29.13;;;22.23;;
59074;SDS011;44860;53.020;6.738;2023-11-21T09:26:19;29.27;;;21.30;;
59074;SDS011;44860;53.020;6.738;2023-11-21T09:28:44;26.42;;;19.63;;
59074;SDS011;44860;53.020;6.738;2023-11-21T09:31:12;26.52;;;19.45;;
59074;SDS011;44860;53.020;6.738;2023-11-21T09:33:41;25.85;;;20.02;;
59074;SDS011;44860;53.020;6.738;2023-11-21T09:36:11;26.58;;;19.55;;
59074;SDS011;44860;53.020;6.738;2023-11-21T09:38:38;27.05;;;19.70;;
59074;SDS011;44860;53.020;6.738;2023-11-21T09:41:04;24.30;;;18.67;;
59074;SDS011;44860;53.020;6.738;2023-11-21T09:43:37;23.47;;;18.20;;
59074;SDS011;44860;53.020;6.738;2023-11-21T09:46:04;26.08;;;18.10;;
59074;SDS011;44860;53.020;6.738;2023-11-21T09:48:31;24.42;;;17.85;;
59074;SDS011;44860;53.020;6.738;2023-11-21T09:50:58;24.10;;;18.23;;
59074;SDS011;44860;53.020;6.738;2023-11-21T09:53:25;22.08;;;18.13;;
59074;SDS011;44860;53.020;6.738;2023-11-21T09:55:55;24.33;;;18.20;;
59074;SDS011;44860;53.020;6.738;2023-11-21T09:58:21;24.67;;;17.63;;
59074;SDS011;44860;53.020;6.738;2023-11-21T10:00:51;20.33;;;16.85;;
59074;SDS011;44860;53.020;6.738;2023-11-21T10:03:19;19.95;;;16.17;;
59074;SDS011;44860;53.020;6.738;2023-11-21T10:05:45;20.92;;;15.98;;
59074;SDS011;44860;53.020;6.738;2023-11-21T10:08:13;20.15;;;16.02;;
59074;SDS011;44860;53.020;6.738;2023-11-21T10:10:42;20.95;;;16.25;;
59074;SDS011;44860;53.020;6.738;2023-11-21T10:13:13;18.02;;;14.60;;
59074;SDS011;44860;53.020;6.738;2023-11-21T10:15:41;17.98;;;14.25;;
59074;SDS011;44860;53.020;6.738;2023-11-21T10:18:13;17.63;;;13.10;;
59074;SDS011;44860;53.020;6.738;2023-11-21T10:20:42;17.10;;;13.73;;
59074;SDS011;44860;53.020;6.738;2023-11-21T10:23:08;16.85;;;12.75;;
59074;SDS011;44860;53.020;6.738;2023-11-21T10:25:36;15.70;;;12.68;;
59074;SDS011;44860;53.020;6.738;2023-11-21T10:28:02;15.68;;;12.30;;
59074;SDS011;44860;53.020;6.738;2023-11-21T10:30:32;14.07;;;11.55;;
59074;SDS011;44860;53.020;6.738;2023-11-21T10:33:02;14.00;;;11.48;;
59074;SDS011;44860;53.020;6.738;2023-11-21T10:35:41;13.88;;;10.85;;
59074;SDS011;44860;53.020;6.738;2023-11-21T10:38:12;13.45;;;10.52;;
59074;SDS011;44860;53.020;6.738;2023-11-21T10:40:40;13.90;;;10.80;;
59074;SDS011;44860;53.020;6.738;2023-11-21T10:43:07;13.43;;;10.68;;
59074;SDS011;44860;53.020;6.738;2023-11-21T10:45:43;14.55;;;10.63;;
59074;SDS011;44860;53.020;6.738;2023-11-21T10:48:10;12.02;;;10.02;;
59074;SDS011;44860;53.020;6.738;2023-11-21T10:50:42;12.85;;;10.77;;
59074;SDS011;44860;53.020;6.738;2023-11-21T10:53:11;13.18;;;10.48;;
59074;SDS011;44860;53.020;6.738;2023-11-21T10:55:38;13.13;;;10.25;;
59074;SDS011;44860;53.020;6.738;2023-11-21T10:58:04;13.45;;;10.35;;
59074;SDS011;44860;53.020;6.738;2023-11-21T11:00:31;12.93;;;10.27;;
59074;SDS011;44860;53.020;6.738;2023-11-21T11:02:58;11.95;;;9.73;;
59074;SDS011;44860;53.020;6.738;2023-11-21T11:05:26;12.55;;;9.65;;
59074;SDS011;44860;53.020;6.738;2023-11-21T11:10:51;14.07;;;10.20;;
59074;SDS011;44860;53.020;6.738;2023-11-21T11:13:17;11.88;;;10.27;;
59074;SDS011;44860;53.020;6.738;2023-11-21T11:15:44;13.15;;;10.85;;
59074;SDS011;44860;53.020;6.738;2023-11-21T11:18:12;13.30;;;9.95;;
59074;SDS011;44860;53.020;6.738;2023-11-21T11:20:38;12.23;;;10.32;;
59074;SDS011;44860;53.020;6.738;2023-11-21T11:29:03;13.05;;;10.27;;
59074;SDS011;44860;53.020;6.738;2023-11-21T11:31:52;12.50;;;9.48;;
59074;SDS011;44860;53.020;6.738;2023-11-21T11:34:34;12.63;;;9.55;;
59074;SDS011;44860;53.020;6.738;2023-11-21T11:37:07;12.68;;;9.32;;
59074;SDS011;44860;53.020;6.738;2023-11-21T11:39:40;12.13;;;9.85;;
59074;SDS011;44860;53.020;6.738;2023-11-21T11:42:10;13.20;;;9.65;;
59074;SDS011;44860;53.020;6.738;2023-11-21T11:44:48;12.70;;;9.90;;
59074;SDS011;44860;53.020;6.738;2023-11-21T11:55:12;11.95;;;9.40;;
59074;SDS011;44860;53.020;6.738;2023-11-21T11:57:43;10.23;;;8.73;;
59074;SDS011;44860;53.020;6.738;2023-11-21T12:02:45;11.98;;;9.32;;
59074;SDS011;44860;53.020;6.738;2023-11-21T12:05:20;12.73;;;8.90;;
59074;SDS011;44860;53.020;6.738;2023-11-21T12:10:14;11.77;;;9.05;;
59074;SDS011;44860;53.020;6.738;2023-11-21T12:12:43;10.02;;;8.75;;
59074;SDS011;44860;53.020;6.738;2023-11-21T12:15:11;11.70;;;9.10;;
59074;SDS011;44860;53.020;6.738;2023-11-21T12:17:38;10.63;;;8.38;;
59074;SDS011;44860;53.020;6.738;2023-11-21T12:20:04;10.52;;;8.55;;
59074;SDS011;44860;53.020;6.738;2023-11-21T12:22:39;10.90;;;8.75;;
59074;SDS011;44860;53.020;6.738;2023-11-21T12:25:07;11.90;;;9.38;;
59074;SDS011;44860;53.020;6.738;2023-11-21T12:27:32;11.55;;;9.65;;
59074;SDS011;44860;53.020;6.738;2023-11-21T12:29:58;11.35;;;9.57;;
59074;SDS011;44860;53.020;6.738;2023-11-21T12:32:24;13.48;;;10.07;;
59074;SDS011;44860;53.020;6.738;2023-11-21T12:34:50;13.10;;;9.55;;
59074;SDS011;44860;53.020;6.738;2023-11-21T12:37:16;12.90;;;9.25;;
59074;SDS011;44860;53.020;6.738;2023-11-21T12:39:42;11.50;;;8.52;;
59074;SDS011;44860;53.020;6.738;2023-11-21T12:42:08;10.88;;;9.02;;
59074;SDS011;44860;53.020;6.738;2023-11-21T12:44:35;11.00;;;8.70;;
59074;SDS011;44860;53.020;6.738;2023-11-21T12:47:02;10.93;;;8.90;;
59074;SDS011;44860;53.020;6.738;2023-11-21T12:49:28;11.77;;;8.93;;
59074;SDS011;44860;53.020;6.738;2023-11-21T12:51:54;11.75;;;9.05;;
59074;SDS011;44860;53.020;6.738;2023-11-21T12:54:19;12.45;;;9.07;;
59074;SDS011;44860;53.020;6.738;2023-11-21T12:56:46;12.32;;;9.48;;
59074;SDS011;44860;53.020;6.738;2023-11-21T12:59:14;11.70;;;8.30;;
59074;SDS011;44860;53.020;6.738;2023-11-21T13:01:42;11.40;;;9.02;;
59074;SDS011;44860;53.020;6.738;2023-11-21T13:04:08;10.30;;;8.45;;
59074;SDS011;44860;53.020;6.738;2023-11-21T13:06:35;12.15;;;8.82;;
59074;SDS011;44860;53.020;6.738;2023-11-21T13:09:06;11.18;;;8.57;;
59074;SDS011;44860;53.020;6.738;2023-11-21T13:11:36;10.48;;;8.30;;
59074;SDS011;44860;53.020;6.738;2023-11-21T13:14:02;11.27;;;8.30;;
59074;SDS011;44860;53.020;6.738;2023-11-21T13:16:28;9.98;;;8.43;;
59074;SDS011;44860;53.020;6.738;2023-11-21T13:18:55;11.77;;;9.02;;
59074;SDS011;44860;53.020;6.738;2023-11-21T13:21:21;11.15;;;8.77;;
59074;SDS011;44860;53.020;6.738;2023-11-21T13:23:47;11.38;;;8.65;;
59074;SDS011;44860;53.020;6.738;2023-11-21T13:26:15;10.63;;;7.95;;
59074;SDS011;44860;53.020;6.738;2023-11-21T13:28:41;10.73;;;8.13;;
59074;SDS011;44860;53.020;6.738;2023-11-21T13:31:11;8.73;;;7.15;;
59074;SDS011;44860;53.020;6.738;2023-11-21T13:33:47;11.55;;;7.78;;
59074;SDS011;44860;53.020;6.738;2023-11-21T13:36:20;10.50;;;7.20;;
59074;SDS011;44860;53.020;6.738;2023-11-21T13:38:50;13.40;;;7.85;;
59074;SDS011;44860;53.020;6.738;2023-11-21T13:41:18;11.68;;;7.88;;
59074;SDS011;44860;53.020;6.738;2023-11-21T13:43:44;9.80;;;7.80;;
59074;SDS011;44860;53.020;6.738;2023-11-21T13:46:18;9.73;;;7.65;;
59074;SDS011;44860;53.020;6.738;2023-11-21T13:48:47;11.00;;;7.90;;
59074;SDS011;44860;53.020;6.738;2023-11-21T13:51:20;10.65;;;7.75;;
59074;SDS011;44860;53.020;6.738;2023-11-21T13:54:09;9.68;;;7.70;;
59074;SDS011;44860;53.020;6.738;2023-11-21T13:56:35;12.95;;;8.07;;
59074;SDS011;44860;53.020;6.738;2023-11-21T13:59:02;11.13;;;8.95;;
59074;SDS011;44860;53.020;6.738;2023-11-21T14:01:39;12.23;;;9.63;;
59074;SDS011;44860;53.020;6.738;2023-11-21T14:04:19;16.02;;;10.90;;
59074;SDS011;44860;53.020;6.738;2023-11-21T14:06:57;13.20;;;10.07;;
59074;SDS011;44860;53.020;6.738;2023-11-21T14:09:43;15.50;;;12.05;;
59074;SDS011;44860;53.020;6.738;2023-11-21T14:12:09;14.23;;;10.98;;
59074;SDS011;44860;53.020;6.738;2023-11-21T14:14:37;15.63;;;10.45;;
59074;SDS011;44860;53.020;6.738;2023-11-21T14:17:04;12.90;;;9.55;;
59074;SDS011;44860;53.020;6.738;2023-11-21T14:19:32;13.82;;;9.48;;
59074;SDS011;44860;53.020;6.738;2023-11-21T14:21:59;10.95;;;8.80;;
59074;SDS011;44860;53.020;6.738;2023-11-21T14:24:25;14.30;;;10.35;;
59074;SDS011;44860;53.020;6.738;2023-11-21T14:26:51;14.73;;;10.48;;
59074;SDS011;44860;53.020;6.738;2023-11-21T14:29:18;12.35;;;9.40;;
59074;SDS011;44860;53.020;6.738;2023-11-21T14:31:51;10.95;;;8.60;;
59074;SDS011;44860;53.020;6.738;2023-11-21T14:34:21;10.93;;;8.63;;
59074;SDS011;44860;53.020;6.738;2023-11-21T14:36:47;14.07;;;10.40;;
59074;SDS011;44860;53.020;6.738;2023-11-21T14:39:14;12.98;;;9.02;;
59074;SDS011;44860;53.020;6.738;2023-11-21T14:41:51;15.98;;;10.38;;
59074;SDS011;44860;53.020;6.738;2023-11-21T14:44:18;13.23;;;8.77;;
59074;SDS011;44860;53.020;6.738;2023-11-21T14:46:44;12.80;;;8.88;;